Time;durP1;ratioP1;P1;durP2;ratioP2;P2;SDS_P1;SDS_P2;PMS_P1;PMS_P2;Temp;Humidity;BMP_temperature;BMP_pressure;BME280_temperature;BME280_humidity;BME280_pressure;Samples;Min_cycle;Max_cycle;Signal;HPM_P1;HPM_P2
2023/08/01 00:01:45;;;;;;;0.50;0.30;;;16.90;99.90;;;;;;4976764;28;20021;-78
2023/08/01 00:04:11;;;;;;;2.90;0.70;;;16.90;99.90;;;;;;5023081;28;20058;-78
2023/08/01 00:06:37;;;;;;;1.17;0.70;;;16.90;99.90;;;;;;5003115;28;20087;-78
2023/08/01 00:09:02;;;;;;;2.28;0.60;;;16.80;99.90;;;;;;4995401;28;20053;-77
2023/08/01 00:11:28;;;;;;;3.10;0.60;;;16.80;99.90;;;;;;4991841;28;20041;-78
2023/08/01 00:13:53;;;;;;;1.85;0.50;;;16.80;99.90;;;;;;4977592;28;20112;-78
2023/08/01 00:16:19;;;;;;;0.30;0.30;;;16.80;99.90;;;;;;4991029;28;20116;-78
2023/08/01 00:18:44;;;;;;;1.70;0.75;;;16.80;99.90;;;;;;5003140;28;20029;-78
2023/08/01 00:21:11;;;;;;;1.98;0.45;;;16.90;99.90;;;;;;5026292;28;20044;-77
2023/08/01 00:23:37;;;;;;;0.98;0.50;;;16.80;99.90;;;;;;5006911;28;20401;-78
2023/08/01 00:26:02;;;;;;;1.33;0.60;;;16.80;99.90;;;;;;4976460;28;20048;-78
2023/08/01 00:28:29;;;;;;;0.85;0.73;;;16.80;99.90;;;;;;4994174;28;20412;-79
2023/08/01 00:31:10;;;;;;;2.05;0.60;;;16.80;99.90;;;;;;5008167;28;20033;-77
2023/08/01 00:33:36;;;;;;;1.67;0.80;;;16.70;99.90;;;;;;4977460;28;20030;-78
2023/08/01 00:36:02;;;;;;;0.70;0.70;;;16.70;99.90;;;;;;4981488;28;20045;-78
2023/08/01 00:38:27;;;;;;;2.05;0.82;;;16.70;99.90;;;;;;4977055;28;21509;-78
2023/08/01 00:40:53;;;;;;;1.00;0.88;;;16.70;99.90;;;;;;4975334;28;20124;-80
2023/08/01 00:43:18;;;;;;;0.90;0.80;;;16.70;99.90;;;;;;4990397;28;20115;-78
2023/08/01 00:45:44;;;;;;;1.70;0.85;;;16.70;99.90;;;;;;5000870;28;20053;-79
2023/08/01 00:48:10;;;;;;;1.17;0.63;;;16.70;99.90;;;;;;4990831;28;20452;-78
2023/08/01 00:50:35;;;;;;;2.83;1.05;;;16.70;99.90;;;;;;4991978;28;20057;-78
2023/08/01 00:53:01;;;;;;;1.52;1.30;;;16.60;99.90;;;;;;4992407;28;20726;-78
2023/08/01 00:55:27;;;;;;;1.83;1.10;;;16.60;99.90;;;;;;4991025;28;20116;-79
2023/08/01 00:57:53;;;;;;;1.25;0.70;;;16.60;99.90;;;;;;4994709;28;20481;-78
2023/08/01 01:00:18;;;;;;;2.40;0.95;;;16.60;99.90;;;;;;4993910;28;20125;-78
2023/08/01 01:02:44;;;;;;;1.23;0.90;;;16.60;99.90;;;;;;5001055;28;20037;-79
2023/08/01 01:05:10;;;;;;;2.97;1.08;;;16.60;99.90;;;;;;5001129;28;20045;-78
2023/08/01 01:07:35;;;;;;;1.00;0.80;;;16.50;99.90;;;;;;5005846;28;20037;-79
2023/08/01 01:10:01;;;;;;;1.67;1.00;;;16.50;99.90;;;;;;4980138;28;20034;-78
2023/08/01 01:12:26;;;;;;;1.42;0.90;;;16.50;99.90;;;;;;4973038;28;20033;-78
2023/08/01 01:14:52;;;;;;;3.03;1.48;;;16.50;99.90;;;;;;5012360;28;20080;-78
2023/08/01 01:17:17;;;;;;;1.30;1.20;;;16.50;99.90;;;;;;4986237;28;20120;-78
2023/08/01 01:19:43;;;;;;;1.30;1.20;;;16.50;99.90;;;;;;4977969;28;20063;-78
2023/08/01 01:22:09;;;;;;;1.55;1.45;;;16.50;99.90;;;;;;5002850;28;20037;-78
2023/08/01 01:24:35;;;;;;;0.85;0.85;;;16.50;99.90;;;;;;5007621;28;20053;-79
2023/08/01 01:27:00;;;;;;;1.30;1.20;;;16.50;99.90;;;;;;4976324;28;20025;-79
2023/08/01 01:29:27;;;;;;;1.10;0.82;;;16.40;99.90;;;;;;4983957;28;20155;-79
2023/08/01 01:31:52;;;;;;;1.48;1.35;;;16.40;99.90;;;;;;5006956;28;20044;-78
2023/08/01 01:34:18;;;;;;;6.38;1.40;;;16.40;99.90;;;;;;4986111;28;20465;-79
2023/08/01 01:36:44;;;;;;;1.50;1.40;;;16.50;99.90;;;;;;5023858;28;20110;-78
2023/08/01 01:39:09;;;;;;;3.35;1.50;;;16.40;99.90;;;;;;4991322;28;20026;-79
2023/08/01 01:41:35;;;;;;;1.40;0.93;;;16.40;99.90;;;;;;5009445;28;20064;-78
2023/08/01 01:44:01;;;;;;;1.77;1.40;;;16.30;99.90;;;;;;4991536;28;20632;-78
2023/08/01 01:46:26;;;;;;;1.52;1.30;;;16.40;99.90;;;;;;5011595;28;20737;-78
2023/08/01 01:48:52;;;;;;;1.40;1.30;;;16.40;99.90;;;;;;4990911;28;20565;-79
2023/08/01 01:51:17;;;;;;;1.23;0.95;;;16.30;99.90;;;;;;4996102;28;20025;-78
2023/08/01 01:53:43;;;;;;;1.60;1.08;;;16.40;99.90;;;;;;5009650;28;20397;-78
2023/08/01 01:56:09;;;;;;;1.10;1.00;;;16.30;99.90;;;;;;5007307;28;20136;-79
2023/08/01 01:58:34;;;;;;;1.20;0.95;;;16.40;99.90;;;;;;4988965;28;20049;-79
2023/08/01 02:01:00;;;;;;;3.50;2.22;;;16.40;99.90;;;;;;4988680;28;20030;-79
2023/08/01 02:03:25;;;;;;;2.95;2.65;;;16.50;99.90;;;;;;4992063;28;20048;-79
2023/08/01 02:05:51;;;;;;;6.22;1.80;;;16.30;99.90;;;;;;4994643;28;20044;-78
2023/08/01 02:08:16;;;;;;;2.28;1.92;;;16.40;99.90;;;;;;4969296;28;20092;-78
2023/08/01 02:10:42;;;;;;;2.40;1.45;;;16.30;99.90;;;;;;4989858;28;20099;-78
2023/08/01 02:13:08;;;;;;;4.30;1.98;;;16.20;99.90;;;;;;4975448;28;20041;-78
2023/08/01 02:15:34;;;;;;;2.00;1.80;;;16.20;99.90;;;;;;4994017;28;20029;-79
2023/08/01 02:17:59;;;;;;;2.60;2.05;;;16.20;99.90;;;;;;4975644;28;20449;-78
2023/08/01 02:20:26;;;;;;;2.25;1.75;;;16.20;99.90;;;;;;5007905;28;20401;-78
2023/08/01 02:22:52;;;;;;;2.97;1.98;;;16.20;99.90;;;;;;4987475;28;20119;-78
2023/08/01 02:25:17;;;;;;;3.63;1.95;;;16.20;99.90;;;;;;4969519;28;20057;-78
2023/08/01 02:27:43;;;;;;;6.78;1.65;;;16.10;99.90;;;;;;4986744;28;20056;-77
2023/08/01 02:30:09;;;;;;;2.92;2.20;;;16.10;99.90;;;;;;5003352;28;20034;-78
2023/08/01 02:32:34;;;;;;;3.05;2.20;;;16.10;99.90;;;;;;4981895;28;20091;-77
2023/08/01 02:35:00;;;;;;;1.95;1.58;;;16.10;99.90;;;;;;4993156;28;20128;-77
2023/08/01 02:37:25;;;;;;;2.55;2.28;;;16.00;99.90;;;;;;4991711;28;20077;-79
2023/08/01 02:39:51;;;;;;;2.33;1.75;;;15.90;99.90;;;;;;5003540;28;20045;-78
2023/08/01 02:42:16;;;;;;;4.32;2.00;;;15.90;99.90;;;;;;4972811;28;20038;-78
2023/08/01 02:44:42;;;;;;;7.07;2.50;;;15.90;99.90;;;;;;4991463;28;20059;-79
2023/08/01 02:47:07;;;;;;;3.13;2.50;;;15.90;99.90;;;;;;5023311;28;20053;-78
2023/08/01 02:49:33;;;;;;;5.10;2.63;;;15.90;99.90;;;;;;4987994;28;20052;-78
2023/08/01 02:51:58;;;;;;;7.00;2.83;;;15.90;99.90;;;;;;5004094;28;20102;-79
2023/08/01 02:54:24;;;;;;;5.75;3.75;;;15.90;99.90;;;;;;5009333;28;20133;-77
2023/08/01 02:56:51;;;;;;;3.00;2.70;;;15.90;99.90;;;;;;4999267;28;20034;-79
2023/08/01 02:59:18;;;;;;;5.03;3.03;;;15.90;99.90;;;;;;5000865;28;20034;-78
2023/08/01 03:01:43;;;;;;;7.03;4.60;;;15.90;99.90;;;;;;5002895;28;20118;-78
2023/08/01 03:04:11;;;;;;;3.83;2.58;;;15.90;99.90;;;;;;4974373;28;20034;-78
2023/08/01 03:06:37;;;;;;;5.28;3.35;;;15.90;99.90;;;;;;4992769;28;20034;-78
2023/08/01 03:09:02;;;;;;;11.20;5.57;;;15.80;99.90;;;;;;4992221;28;20511;-79
2023/08/01 03:11:28;;;;;;;7.15;6.35;;;15.80;99.90;;;;;;4994191;28;20511;-80
2023/08/01 03:13:53;;;;;;;8.45;5.25;;;15.80;99.90;;;;;;5026241;28;20057;-78
2023/08/01 03:16:19;;;;;;;8.52;5.57;;;15.80;99.90;;;;;;4997308;28;20026;-78
2023/08/01 03:18:45;;;;;;;10.15;6.47;;;15.80;99.90;;;;;;5026083;28;20053;-78
2023/08/01 03:21:10;;;;;;;9.73;7.78;;;15.80;99.90;;;;;;4994589;28;20485;-80
2023/08/01 03:23:36;;;;;;;11.65;7.65;;;15.70;99.90;;;;;;4980770;28;20041;-78
2023/08/01 03:26:02;;;;;;;12.85;7.22;;;15.80;99.90;;;;;;5024794;28;20605;-79
2023/08/01 03:28:27;;;;;;;12.90;8.50;;;15.70;99.90;;;;;;4978519;28;20038;-79
2023/08/01 03:30:53;;;;;;;12.85;7.00;;;15.80;99.90;;;;;;5008034;28;20044;-77
2023/08/01 03:33:20;;;;;;;14.88;10.80;;;15.70;99.90;;;;;;4994946;28;20041;-78
2023/08/01 03:35:45;;;;;;;12.25;9.40;;;15.70;99.90;;;;;;4988576;28;20029;-79
2023/08/01 03:38:11;;;;;;;12.18;8.20;;;15.70;99.90;;;;;;4990038;28;20033;-78
2023/08/01 03:40:37;;;;;;;13.25;11.90;;;15.80;99.90;;;;;;5012883;28;20612;-78
2023/08/01 03:43:02;;;;;;;14.88;10.75;;;15.70;99.90;;;;;;4994614;28;20103;-78
2023/08/01 03:45:28;;;;;;;15.60;10.52;;;15.80;99.90;;;;;;4979692;28;20357;-80
2023/08/01 03:47:53;;;;;;;17.45;11.80;;;15.70;99.90;;;;;;4992248;28;20485;-78
2023/08/01 03:50:19;;;;;;;14.75;9.88;;;15.70;99.90;;;;;;4995529;28;20536;-78
2023/08/01 03:52:46;;;;;;;15.73;10.00;;;15.60;99.90;;;;;;5008233;28;20034;-78
2023/08/01 03:55:12;;;;;;;16.58;11.07;;;15.60;99.90;;;;;;4991465;28;20044;-79
2023/08/01 03:57:38;;;;;;;16.83;11.35;;;15.60;99.90;;;;;;4975958;28;20038;-79
2023/08/01 04:00:06;;;;;;;9.45;6.15;;;15.60;99.90;;;;;;4985827;28;20036;-79
2023/08/01 04:02:31;;;;;;;9.07;4.95;;;15.60;99.90;;;;;;4992711;28;20833;-79
2023/08/01 04:04:57;;;;;;;17.33;10.85;;;15.60;99.90;;;;;;4991933;28;20111;-78
2023/08/01 04:07:22;;;;;;;14.32;7.70;;;15.50;99.90;;;;;;5003769;28;20061;-78
2023/08/01 04:09:48;;;;;;;15.52;8.07;;;15.50;99.90;;;;;;5009045;28;20029;-79
2023/08/01 04:12:14;;;;;;;10.30;3.78;;;15.50;99.90;;;;;;4988974;28;20034;-79
2023/08/01 04:14:39;;;;;;;9.63;6.18;;;15.50;99.90;;;;;;4994830;28;20029;-78
2023/08/01 04:17:05;;;;;;;11.23;6.70;;;15.40;99.90;;;;;;4989303;28;20109;-79
2023/08/01 04:19:30;;;;;;;12.38;7.78;;;15.40;99.90;;;;;;5008528;28;20030;-79
2023/08/01 04:21:56;;;;;;;14.65;8.25;;;15.40;99.90;;;;;;4988578;28;20095;-78
2023/08/01 04:24:25;;;;;;;12.85;7.10;;;15.40;99.90;;;;;;4991162;28;20025;-79
2023/08/01 04:26:50;;;;;;;11.23;7.10;;;15.40;99.90;;;;;;4979504;28;20090;-79
2023/08/01 04:29:17;;;;;;;11.38;8.50;;;15.40;99.90;;;;;;4991012;28;20133;-79
2023/08/01 04:31:43;;;;;;;7.43;5.90;;;15.40;99.90;;;;;;4983769;28;20029;-78
2023/08/01 04:34:08;;;;;;;12.32;6.40;;;15.40;99.90;;;;;;4994631;28;20045;-79
2023/08/01 04:36:34;;;;;;;11.93;5.97;;;15.40;99.90;;;;;;4992253;28;20124;-79
2023/08/01 04:38:59;;;;;;;12.15;6.85;;;15.40;99.90;;;;;;4980262;28;20080;-79
2023/08/01 04:41:25;;;;;;;13.85;7.22;;;15.30;99.90;;;;;;5012350;28;20030;-79
2023/08/01 04:43:51;;;;;;;12.85;6.32;;;15.30;99.90;;;;;;4989267;28;20493;-79
2023/08/01 04:46:16;;;;;;;9.98;7.25;;;15.30;99.90;;;;;;4995036;28;20125;-79
2023/08/01 04:48:42;;;;;;;15.20;7.55;;;15.40;99.90;;;;;;4978357;28;20136;-79
2023/08/01 04:51:07;;;;;;;11.73;7.28;;;15.50;99.90;;;;;;4985314;28;20056;-79
2023/08/01 04:53:33;;;;;;;15.25;10.20;;;15.40;99.90;;;;;;4960102;28;20026;-79
2023/08/01 04:55:59;;;;;;;12.10;7.50;;;15.40;99.90;;;;;;5002122;28;20505;-80
2023/08/01 04:58:24;;;;;;;12.65;8.40;;;15.40;99.90;;;;;;4991862;28;20026;-79
2023/08/01 05:00:50;;;;;;;15.02;8.68;;;15.30;99.90;;;;;;4974910;28;20436;-79
2023/08/01 05:03:15;;;;;;;16.13;9.50;;;15.30;99.90;;;;;;5006040;28;20111;-79
2023/08/01 05:05:41;;;;;;;14.27;8.63;;;15.30;99.90;;;;;;5023660;28;20095;-80
2023/08/01 05:08:06;;;;;;;13.77;8.30;;;15.30;99.90;;;;;;5009407;28;20050;-79
2023/08/01 05:10:32;;;;;;;14.82;8.23;;;15.40;99.90;;;;;;5008273;28;20052;-80
2023/08/01 05:12:57;;;;;;;22.40;13.77;;;15.40;99.90;;;;;;4988368;28;20040;-80
2023/08/01 05:15:23;;;;;;;22.52;13.68;;;15.50;99.90;;;;;;5001211;28;20036;-80
2023/08/01 05:17:49;;;;;;;18.83;12.23;;;15.40;99.90;;;;;;4975328;28;20067;-79
2023/08/01 05:20:14;;;;;;;15.68;11.95;;;15.40;99.90;;;;;;4992098;28;20048;-80
2023/08/01 05:22:40;;;;;;;12.30;8.35;;;15.50;99.90;;;;;;5004330;28;20140;-79
2023/08/01 05:25:05;;;;;;;19.15;11.18;;;15.50;99.90;;;;;;4989045;28;20041;-80
2023/08/01 05:27:31;;;;;;;26.75;16.08;;;15.40;99.90;;;;;;5003209;28;20041;-79
2023/08/01 05:29:57;;;;;;;22.25;16.08;;;15.40;99.90;;;;;;4991417;28;20034;-79
2023/08/01 05:32:22;;;;;;;17.08;12.10;;;15.40;99.90;;;;;;4977990;28;20022;-80
2023/08/01 05:34:48;;;;;;;17.40;11.65;;;15.50;99.90;;;;;;4976319;28;20173;-79
2023/08/01 05:37:13;;;;;;;20.52;12.73;;;15.60;99.90;;;;;;4990322;28;20588;-79
2023/08/01 05:39:39;;;;;;;18.23;11.68;;;15.50;99.90;;;;;;4999017;28;20041;-79
2023/08/01 05:42:08;;;;;;;20.08;13.77;;;15.50;99.90;;;;;;5025190;28;20040;-79
2023/08/01 05:44:34;;;;;;;19.85;12.38;;;15.60;99.90;;;;;;5004433;28;20041;-79
2023/08/01 05:46:59;;;;;;;21.70;16.25;;;15.60;99.90;;;;;;4987044;28;20057;-79
2023/08/01 05:49:25;;;;;;;24.98;13.77;;;15.60;99.90;;;;;;4990589;28;20745;-78
2023/08/01 05:51:51;;;;;;;19.17;13.60;;;15.60;99.90;;;;;;5005514;28;20393;-79
2023/08/01 05:54:16;;;;;;;17.77;13.95;;;15.70;99.90;;;;;;4971591;28;20417;-79
2023/08/01 05:56:42;;;;;;;13.02;9.18;;;15.70;99.90;;;;;;5006574;28;20073;-78
2023/08/01 05:59:07;;;;;;;21.92;12.02;;;15.80;99.90;;;;;;4987756;28;20029;-79
2023/08/01 06:01:34;;;;;;;18.92;13.07;;;15.80;99.90;;;;;;4977228;28;20413;-78
2023/08/01 06:03:59;;;;;;;13.20;8.23;;;15.80;99.90;;;;;;4974946;28;20054;-79
2023/08/01 06:06:25;;;;;;;16.90;10.38;;;15.80;99.90;;;;;;5005368;28;20555;-79
2023/08/01 06:08:51;;;;;;;20.90;13.98;;;15.80;99.90;;;;;;5005553;28;20464;-79
2023/08/01 06:11:17;;;;;;;20.33;12.75;;;15.80;99.90;;;;;;4991239;28;20525;-79
2023/08/01 06:13:42;;;;;;;17.00;12.43;;;15.80;99.90;;;;;;5000382;28;20168;-79
2023/08/01 06:16:08;;;;;;;20.02;13.75;;;15.90;99.90;;;;;;4990172;28;20037;-79
2023/08/01 06:18:33;;;;;;;18.23;13.38;;;15.90;99.90;;;;;;4990491;28;20033;-79
2023/08/01 06:20:59;;;;;;;26.73;14.30;;;15.90;99.90;;;;;;4990356;28;20052;-79
2023/08/01 06:23:24;;;;;;;24.17;14.48;;;15.90;99.90;;;;;;4978093;28;20025;-79
2023/08/01 06:25:50;;;;;;;19.88;13.32;;;15.90;99.90;;;;;;4991845;28;20488;-79
2023/08/01 06:28:15;;;;;;;18.75;11.68;;;16.00;99.90;;;;;;4993417;28;20054;-79
2023/08/01 06:30:41;;;;;;;19.38;11.70;;;16.00;99.90;;;;;;4978498;28;20047;-80
2023/08/01 06:33:07;;;;;;;15.57;9.13;;;16.00;99.90;;;;;;4994522;28;20033;-79
2023/08/01 06:35:32;;;;;;;13.07;8.73;;;16.10;99.90;;;;;;5007205;28;20076;-78
2023/08/01 06:37:58;;;;;;;17.10;11.00;;;16.20;99.90;;;;;;4995075;28;20081;-78
2023/08/01 06:40:23;;;;;;;16.92;11.15;;;16.20;99.90;;;;;;5002953;28;20072;-78
2023/08/01 06:42:49;;;;;;;19.55;11.23;;;16.10;99.90;;;;;;4994231;28;20034;-79
2023/08/01 06:45:15;;;;;;;16.08;11.60;;;16.20;99.90;;;;;;5009921;28;20036;-79
2023/08/01 06:47:40;;;;;;;15.02;9.70;;;16.20;99.90;;;;;;4993874;28;20029;-78
2023/08/01 06:50:06;;;;;;;19.15;12.02;;;16.30;99.90;;;;;;4981594;28;20037;-79
2023/08/01 06:52:31;;;;;;;17.33;10.13;;;16.20;99.90;;;;;;4982234;28;20556;-78
2023/08/01 06:54:57;;;;;;;18.85;12.43;;;16.30;99.90;;;;;;4982931;28;20025;-78
2023/08/01 06:57:22;;;;;;;20.00;11.70;;;16.40;99.90;;;;;;5007982;28;20029;-79
2023/08/01 06:59:48;;;;;;;16.42;11.02;;;16.50;99.90;;;;;;4992184;28;20044;-79
2023/08/01 07:02:15;;;;;;;24.10;11.60;;;16.50;99.90;;;;;;4994989;28;20279;-78
2023/08/01 07:04:40;;;;;;;17.75;11.77;;;16.50;99.90;;;;;;4995112;28;20556;-78
2023/08/01 07:07:08;;;;;;;15.15;10.95;;;16.50;99.90;;;;;;4992935;28;20163;-79
2023/08/01 07:09:34;;;;;;;15.40;10.52;;;16.50;99.90;;;;;;5007985;28;20128;-78
2023/08/01 07:12:00;;;;;;;11.82;7.65;;;16.60;99.90;;;;;;4990541;28;20624;-78
2023/08/01 07:14:25;;;;;;;13.75;9.68;;;16.60;99.90;;;;;;4991387;28;20476;-80
2023/08/01 07:16:51;;;;;;;16.13;10.35;;;16.70;99.90;;;;;;4976672;28;20128;-78
2023/08/01 07:19:17;;;;;;;15.70;9.80;;;16.70;99.90;;;;;;5003072;28;20152;-78
2023/08/01 07:21:44;;;;;;;19.80;9.88;;;16.80;99.90;;;;;;5007813;28;20038;-79
2023/08/01 07:24:11;;;;;;;16.55;9.40;;;16.90;99.90;;;;;;4996012;28;20096;-78
2023/08/01 07:26:37;;;;;;;12.55;8.02;;;17.00;99.90;;;;;;4980783;28;20041;-78
2023/08/01 07:29:03;;;;;;;8.68;6.13;;;17.00;99.90;;;;;;4989070;28;20077;-79
2023/08/01 07:31:28;;;;;;;12.50;8.57;;;17.20;99.90;;;;;;4993968;28;20036;-79
2023/08/01 07:33:57;;;;;;;14.25;7.70;;;17.30;99.90;;;;;;4999141;28;20033;-79
2023/08/01 07:36:23;;;;;;;13.57;6.25;;;17.30;99.90;;;;;;4996022;28;20497;-78
2023/08/01 07:38:48;;;;;;;10.25;7.20;;;17.50;99.90;;;;;;5003639;28;20029;-78
2023/08/01 07:41:14;;;;;;;14.43;8.85;;;17.70;99.90;;;;;;4996000;28;20443;-78
2023/08/01 07:43:40;;;;;;;19.48;8.98;;;17.70;99.90;;;;;;4958989;28;20052;-78
2023/08/01 07:46:08;;;;;;;14.05;7.25;;;17.80;99.90;;;;;;5007271;28;20037;-78
2023/08/01 07:48:34;;;;;;;16.75;8.25;;;18.00;99.90;;;;;;4977078;28;20033;-78
2023/08/01 07:51:00;;;;;;;13.38;6.35;;;17.90;99.90;;;;;;4990809;28;20033;-78
2023/08/01 07:53:26;;;;;;;16.02;8.38;;;18.00;99.90;;;;;;5002603;28;20037;-79
2023/08/01 07:55:53;;;;;;;8.90;5.53;;;18.10;99.90;;;;;;4973748;28;20033;-79
2023/08/01 07:58:18;;;;;;;13.02;8.27;;;17.90;99.90;;;;;;4961572;28;20042;-79
2023/08/01 08:00:44;;;;;;;11.73;6.90;;;17.80;99.90;;;;;;4978954;28;20038;-79
2023/08/01 08:03:09;;;;;;;7.05;5.45;;;17.70;99.90;;;;;;4979052;28;20087;-79
2023/08/01 08:05:38;;;;;;;10.27;7.40;;;17.60;99.90;;;;;;4976736;28;20100;-79
2023/08/01 08:08:05;;;;;;;11.70;7.25;;;17.50;99.90;;;;;;4977021;28;20144;-79
2023/08/01 08:10:30;;;;;;;10.30;6.05;;;17.30;99.90;;;;;;5000256;28;20048;-79
2023/08/01 08:12:56;;;;;;;11.88;7.32;;;17.40;99.90;;;;;;4986072;28;20037;-79
2023/08/01 08:15:23;;;;;;;13.90;5.40;;;17.50;99.90;;;;;;5025627;28;20480;-79
2023/08/01 08:17:49;;;;;;;11.05;7.22;;;17.60;99.90;;;;;;4994053;28;20160;-79
2023/08/01 08:20:14;;;;;;;13.80;6.30;;;17.70;99.90;;;;;;4991218;28;20111;-79
2023/08/01 08:22:40;;;;;;;12.52;7.40;;;17.90;99.90;;;;;;4998594;28;20029;-79
2023/08/01 08:25:06;;;;;;;10.98;6.65;;;18.00;99.90;;;;;;4974742;28;20037;-79
2023/08/01 08:27:31;;;;;;;10.25;6.85;;;18.10;99.90;;;;;;5003693;28;20037;-78
2023/08/01 08:29:57;;;;;;;10.80;7.25;;;18.40;99.90;;;;;;5012470;28;20026;-78
2023/08/01 08:32:22;;;;;;;7.07;3.42;;;18.60;99.90;;;;;;4990487;28;20128;-79
2023/08/01 08:34:48;;;;;;;6.80;4.32;;;18.90;99.90;;;;;;5008356;28;20029;-78
2023/08/01 08:37:13;;;;;;;9.45;5.25;;;19.10;99.90;;;;;;4988764;28;20384;-78
2023/08/01 08:39:39;;;;;;;14.07;6.50;;;19.20;99.90;;;;;;4978071;28;20985;-79
2023/08/01 08:42:05;;;;;;;11.55;7.45;;;19.40;99.90;;;;;;4991706;28;20392;-78
2023/08/01 08:44:34;;;;;;;6.72;4.70;;;19.40;99.90;;;;;;5004587;28;20037;-78
2023/08/01 08:47:02;;;;;;;13.88;8.38;;;19.50;99.90;;;;;;4990767;28;20088;-78
2023/08/01 08:49:28;;;;;;;10.02;6.00;;;19.50;99.90;;;;;;4980400;28;20041;-79
2023/08/01 08:51:54;;;;;;;10.10;6.38;;;19.40;99.90;;;;;;5023767;28;20052;-79
2023/08/01 08:54:19;;;;;;;7.63;5.82;;;19.30;99.90;;;;;;4993255;28;20109;-78
2023/08/01 08:56:45;;;;;;;10.15;6.88;;;19.20;99.90;;;;;;5005300;28;20116;-78
2023/08/01 08:59:10;;;;;;;9.85;6.38;;;19.00;99.90;;;;;;5002974;28;20061;-79
2023/08/01 09:01:37;;;;;;;14.13;7.13;;;19.10;99.90;;;;;;4992215;28;20040;-78
2023/08/01 09:04:03;;;;;;;10.15;6.15;;;19.10;99.90;;;;;;5023613;28;20037;-79
2023/08/01 09:06:35;;;;;;;8.52;5.13;;;19.40;99.90;;;;;;4989529;28;20057;-79
2023/08/01 09:09:09;;;;;;;7.43;3.70;;;19.70;99.90;;;;;;4991545;28;20049;-79
2023/08/01 09:11:50;;;;;;;7.40;4.55;;;19.80;99.90;;;;;;4992446;28;20503;-78
2023/08/01 09:14:15;;;;;;;9.65;6.20;;;20.00;99.90;;;;;;4999627;28;20069;-79
2023/08/01 09:16:42;;;;;;;14.48;6.57;;;20.20;99.90;;;;;;5006811;28;20118;-79
2023/08/01 09:19:07;;;;;;;7.68;4.55;;;20.40;99.90;;;;;;4988431;28;20037;-79
2023/08/01 09:21:38;;;;;;;9.85;5.70;;;20.60;99.90;;;;;;4989678;28;20388;-78
2023/08/01 09:24:13;;;;;;;9.02;5.35;;;20.50;99.90;;;;;;4984832;28;21161;-79
2023/08/01 09:26:39;;;;;;;6.13;5.13;;;20.50;99.90;;;;;;5008720;28;20367;-78
2023/08/01 09:29:05;;;;;;;7.38;3.80;;;20.70;99.90;;;;;;4998543;28;20125;-78
2023/08/01 09:31:33;;;;;;;11.40;5.60;;;20.90;99.90;;;;;;5010912;28;20029;-78
2023/08/01 09:33:59;;;;;;;9.05;5.32;;;21.00;99.90;;;;;;4989870;28;20037;-78
2023/08/01 09:36:25;;;;;;;15.20;5.65;;;21.10;99.90;;;;;;5006156;28;20026;-78
2023/08/01 09:38:51;;;;;;;7.47;4.75;;;21.40;99.90;;;;;;5019220;28;20071;-78
2023/08/01 09:41:19;;;;;;;7.72;5.07;;;21.50;99.90;;;;;;4991839;28;20477;-79
2023/08/01 09:43:46;;;;;;;8.40;4.93;;;21.80;99.90;;;;;;4992465;28;20037;-79
2023/08/01 09:46:11;;;;;;;9.77;3.80;;;22.00;99.90;;;;;;5005013;28;20052;-78
2023/08/01 09:48:37;;;;;;;5.43;3.95;;;22.30;99.90;;;;;;5007293;28;20049;-78
2023/08/01 09:51:13;;;;;;;5.40;2.65;;;22.70;99.90;;;;;;4976229;28;20037;-78
2023/08/01 09:53:52;;;;;;;;;;;23.00;99.90;;;;;;4995338;28;20497;-79
2023/08/01 09:56:22;;;;;;;6.68;3.40;;;23.10;99.90;;;;;;5024247;28;20505;-80
2023/08/01 09:58:49;;;;;;;8.18;4.55;;;23.30;99.90;;;;;;5006435;28;20117;-79
2023/08/01 10:01:16;;;;;;;7.53;3.97;;;23.70;99.90;;;;;;5004273;28;20112;-79
2023/08/01 10:03:47;;;;;;;9.25;4.15;;;23.90;99.90;;;;;;4995411;28;20034;-78
2023/08/01 10:06:28;;;;;;;16.75;5.47;;;24.00;99.90;;;;;;4975825;28;20038;-77
2023/08/01 10:08:54;;;;;;;6.70;4.05;;;23.40;99.90;;;;;;4975346;28;20034;-78
2023/08/01 10:11:21;;;;;;;8.93;4.30;;;22.50;99.90;;;;;;5006770;28;20477;-78
2023/08/01 10:13:47;;;;;;;10.30;5.28;;;21.90;99.90;;;;;;5005090;28;20030;-78
2023/08/01 10:16:13;;;;;;;4.95;3.15;;;21.70;99.90;;;;;;4980872;28;20053;-78
2023/08/01 10:18:39;;;;;;;6.55;4.18;;;21.30;99.90;;;;;;4994654;28;20108;-79
2023/08/01 10:21:08;;;;;;;7.90;4.68;;;21.20;99.90;;;;;;4992324;28;20128;-79
2023/08/01 10:23:34;;;;;;;6.47;3.67;;;21.20;99.90;;;;;;4993978;28;20040;-77
2023/08/01 10:26:00;;;;;;;9.75;4.65;;;21.40;99.90;;;;;;4993929;28;20037;-77
2023/08/01 10:28:40;;;;;;;12.10;5.35;;;21.60;99.90;;;;;;4981176;28;20374;-79
2023/08/01 10:31:16;;;;;;;9.50;4.65;;;21.70;99.90;;;;;;5010605;28;20034;-77
2023/08/01 10:33:44;;;;;;;10.57;5.07;;;21.80;99.90;;;;;;4291798;28;10000519;-80
2023/08/01 10:36:17;;;;;;;11.10;5.28;;;22.10;99.90;;;;;;4989851;28;20651;-79
2023/08/01 10:38:50;;;;;;;7.85;4.82;;;22.30;99.90;;;;;;4996381;28;20322;-80
2023/08/01 10:41:29;;;;;;;5.00;3.80;;;22.60;99.90;;;;;;4994410;28;20730;-79
2023/08/01 10:44:04;;;;;;;9.20;2.97;;;22.70;99.90;;;;;;4997208;28;20095;-78
2023/08/01 10:46:44;;;;;;;4.55;4.03;;;23.20;99.90;;;;;;4993293;28;20132;-79
2023/08/01 10:49:09;;;;;;;11.65;4.60;;;23.30;99.90;;;;;;4995366;28;20034;-80
2023/08/01 10:51:35;;;;;;;7.15;4.20;;;23.50;99.90;;;;;;4992564;28;20051;-80
2023/08/01 10:54:01;;;;;;;5.30;2.50;;;23.60;99.90;;;;;;4976419;28;20113;-79
2023/08/01 10:56:27;;;;;;;6.75;3.15;;;23.50;99.90;;;;;;4993311;28;20033;-79
2023/08/01 10:58:52;;;;;;;8.38;4.00;;;23.20;99.90;;;;;;5009237;28;20029;-79
2023/08/01 11:01:18;;;;;;;10.95;4.05;;;23.00;99.90;;;;;;4978346;28;20073;-78
2023/08/01 11:03:44;;;;;;;8.20;3.30;;;22.30;99.90;;;;;;4996633;28;20406;-77
2023/08/01 11:06:09;;;;;;;5.05;3.33;;;21.70;99.90;;;;;;4997074;28;20052;-79
2023/08/01 11:08:36;;;;;;;8.18;4.63;;;21.10;99.90;;;;;;4996389;28;20048;-78
2023/08/01 11:11:03;;;;;;;5.50;3.88;;;20.60;99.90;;;;;;4967882;28;20030;-78
2023/08/01 11:13:28;;;;;;;7.75;4.15;;;20.20;99.90;;;;;;5011728;28;20036;-78
2023/08/01 11:15:56;;;;;;;6.28;3.58;;;20.10;99.90;;;;;;4983598;28;20034;-77
2023/08/01 11:18:21;;;;;;;6.18;3.42;;;20.00;99.90;;;;;;4994037;28;20034;-76
2023/08/01 11:20:47;;;;;;;10.20;6.15;;;20.20;99.90;;;;;;5007067;28;20049;-77
2023/08/01 11:23:12;;;;;;;6.80;5.18;;;20.30;99.90;;;;;;5017492;28;20060;-79
2023/08/01 11:25:43;;;;;;;40.00;5.05;;;20.20;99.90;;;;;;4978614;28;20406;-76
2023/08/01 11:28:14;;;;;;;13.60;3.65;;;19.80;99.90;;;;;;5016066;28;20507;-76
2023/08/01 11:30:40;;;;;;;9.55;4.72;;;19.10;99.90;;;;;;4983959;28;20435;-77
2023/08/01 11:33:21;;;;;;;11.75;4.53;;;19.00;99.90;;;;;;4979346;28;20057;-77
2023/08/01 11:35:57;;;;;;;5.97;4.55;;;19.10;99.90;;;;;;5000736;28;20488;-76
2023/08/01 11:38:25;;;;;;;7.28;4.13;;;19.00;99.90;;;;;;4996584;28;20037;-77
2023/08/01 11:40:51;;;;;;;5.15;3.88;;;19.10;99.90;;;;;;5014061;28;20557;-77
2023/08/01 11:43:16;;;;;;;6.35;4.25;;;19.10;99.90;;;;;;4998452;28;20034;-76
2023/08/01 11:45:52;;;;;;;6.85;4.18;;;19.10;99.90;;;;;;5001737;28;20461;-77
2023/08/01 11:48:18;;;;;;;7.05;3.67;;;19.10;99.90;;;;;;5001889;28;20033;-77
2023/08/01 11:50:44;;;;;;;6.20;4.15;;;19.00;99.90;;;;;;5032295;28;20040;-77
2023/08/01 11:53:22;;;;;;;6.20;3.60;;;19.20;99.90;;;;;;4992664;28;20509;-77
2023/08/01 11:55:52;;;;;;;7.15;3.65;;;19.40;99.90;;;;;;4985874;28;20083;-77
2023/08/01 11:58:30;;;;;;;5.88;3.20;;;19.50;99.90;;;;;;4998580;28;20041;-79
2023/08/01 12:01:09;;;;;;;7.28;3.83;;;19.50;99.90;;;;;;4993197;28;20030;-77
2023/08/01 12:03:48;;;;;;;5.82;3.50;;;19.60;99.90;;;;;;4992436;28;20797;-78
2023/08/01 12:06:14;;;;;;;4.88;3.83;;;19.60;99.90;;;;;;5025682;28;20500;-78
2023/08/01 12:08:41;;;;;;;8.00;3.88;;;19.80;99.90;;;;;;4996836;28;20099;-78
2023/08/01 12:11:20;;;;;;;4.88;2.70;;;19.80;99.90;;;;;;4980050;28;20105;-78
2023/08/01 12:13:46;;;;;;;9.80;5.18;;;20.00;99.90;;;;;;4983221;28;20116;-78
2023/08/01 12:16:11;;;;;;;9.32;3.63;;;19.90;99.90;;;;;;5004415;28;20105;-78
2023/08/01 12:18:39;;;;;;;6.97;3.65;;;19.90;99.90;;;;;;4994534;28;20116;-78
2023/08/01 12:21:05;;;;;;;7.05;3.22;;;20.00;99.90;;;;;;4988905;28;20165;-78
2023/08/01 12:23:31;;;;;;;6.65;2.90;;;20.00;99.90;;;;;;5008583;28;20056;-78
2023/08/01 12:25:57;;;;;;;4.93;2.28;;;20.00;99.90;;;;;;4979003;28;20033;-78
2023/08/01 12:28:22;;;;;;;6.68;3.60;;;20.00;99.90;;;;;;4997684;28;20567;-78
2023/08/01 12:30:49;;;;;;;6.28;3.53;;;20.00;99.90;;;;;;4993222;28;20116;-78
2023/08/01 12:33:14;;;;;;;6.05;3.17;;;20.00;99.90;;;;;;5012023;28;20037;-78
2023/08/01 12:35:43;;;;;;;5.45;3.38;;;19.90;99.90;;;;;;4975761;28;20098;-78
2023/08/01 12:38:09;;;;;;;7.05;3.47;;;20.00;99.90;;;;;;4989210;28;20068;-78